Time;durP1;ratioP1;P1;durP2;ratioP2;P2;SDS_P1;SDS_P2;PMS_P1;PMS_P2;Temp;Humidity;BMP_temperature;BMP_pressure;BME280_temperature;BME280_humidity;BME280_pressure;Samples;Min_cycle;Max_cycle;Signal;HPM_P1;HPM_P2
2021/07/13 00:01:22;;;;;;;9.10;6.90;;;;;;;;;;5070564;28;20953;-52
2021/07/13 00:03:49;;;;;;;6.50;6.00;;;;;;;;;;5070479;28;20435;-51
2021/07/13 00:06:15;;;;;;;11.23;6.27;;;;;;;;;;5074283;28;20416;-52
2021/07/13 00:08:41;;;;;;;10.40;6.57;;;;;;;;;;5074313;28;20418;-51
2021/07/13 00:11:07;;;;;;;7.00;6.50;;;;;;;;;;5074399;28;20418;-51
2021/07/13 00:13:33;;;;;;;7.33;6.30;;;;;;;;;;5073969;28;20406;-52
2021/07/13 00:15:59;;;;;;;7.30;6.70;;;;;;;;;;5073720;28;20453;-51
2021/07/13 00:18:25;;;;;;;7.97;7.17;;;;;;;;;;5073792;28;20432;-51
2021/07/13 00:20:51;;;;;;;7.60;7.00;;;;;;;;;;5073671;28;20397;-52
2021/07/13 00:23:17;;;;;;;7.60;7.10;;;;;;;;;;5073748;28;20398;-51
2021/07/13 00:25:43;;;;;;;7.87;7.17;;;;;;;;;;5073317;28;20402;-51
2021/07/13 00:28:09;;;;;;;8.57;7.77;;;;;;;;;;5073669;28;20430;-51
2021/07/13 00:30:35;;;;;;;9.53;8.53;;;;;;;;;;5073521;28;20767;-51
2021/07/13 00:33:01;;;;;;;8.70;7.80;;;;;;;;;;5073449;28;20409;-51
2021/07/13 00:35:27;;;;;;;9.47;7.80;;;;;;;;;;5073079;28;20476;-51
2021/07/13 00:37:53;;;;;;;10.57;7.70;;;;;;;;;;5073472;28;20419;-51
2021/07/13 00:40:21;;;;;;;9.47;7.93;;;;;;;;;;5073383;28;20890;-51
2021/07/13 00:42:47;;;;;;;8.60;7.73;;;;;;;;;;5073406;28;20403;-51
2021/07/13 00:45:14;;;;;;;9.40;7.60;;;;;;;;;;5072931;28;20918;-51
2021/07/13 00:47:40;;;;;;;8.87;8.07;;;;;;;;;;5073128;28;20441;-52
2021/07/13 00:50:07;;;;;;;8.80;7.93;;;;;;;;;;5073406;28;20410;-52
2021/07/13 00:52:33;;;;;;;8.53;7.87;;;;;;;;;;5073437;28;20460;-51
2021/07/13 00:54:59;;;;;;;8.47;7.53;;;;;;;;;;5072803;28;20442;-51
2021/07/13 00:57:25;;;;;;;7.57;6.87;;;;;;;;;;5073069;28;20928;-51
2021/07/13 00:59:51;;;;;;;9.40;8.43;;;;;;;;;;5072978;28;20481;-51
2021/07/13 01:02:19;;;;;;;8.90;7.17;;;;;;;;;;5072360;28;20396;-51
2021/07/13 01:04:49;;;;;;;7.93;7.10;;;;;;;;;;5072047;28;20398;-50
2021/07/13 01:07:21;;;;;;;8.47;7.27;;;;;;;;;;5072863;28;20434;-51
2021/07/13 01:09:47;;;;;;;6.73;6.23;;;;;;;;;;5072645;28;20407;-51
2021/07/13 01:12:13;;;;;;;8.80;6.97;;;;;;;;;;5073236;28;20374;-51
2021/07/13 01:14:58;;;;;;;7.83;7.13;;;;;;;;;;5072503;28;20426;-52
2021/07/13 01:17:29;;;;;;;7.00;6.50;;;;;;;;;;5071882;28;20591;-51
2021/07/13 01:20:19;;;;;;;7.73;6.97;;;;;;;;;;5072711;28;20387;-52
2021/07/13 01:22:48;;;;;;;7.07;6.47;;;;;;;;;;5072870;28;20860;-52
2021/07/13 01:25:17;;;;;;;8.27;6.30;;;;;;;;;;5072208;28;20373;-51
2021/07/13 01:28:04;;;;;;;7.43;6.60;;;;;;;;;;5072512;28;20953;-51
2021/07/13 01:30:32;;;;;;;9.33;6.23;;;;;;;;;;5072458;28;20456;-51
2021/07/13 01:33:10;;;;;;;8.90;6.53;;;;;;;;;;5072439;28;20371;-51
2021/07/13 01:35:39;;;;;;;7.00;6.30;;;;;;;;;;5071944;28;20445;-51
2021/07/13 01:38:09;;;;;;;7.37;6.77;;;;;;;;;;5072349;28;20444;-51
2021/07/13 01:40:35;;;;;;;9.30;6.20;;;;;;;;;;5072255;28;20406;-52
2021/07/13 01:43:02;;;;;;;7.40;6.80;;;;;;;;;;5072335;28;20414;-51
2021/07/13 01:45:29;;;;;;;6.90;6.30;;;;;;;;;;5071816;28;20517;-51
2021/07/13 01:47:57;;;;;;;6.83;6.23;;;;;;;;;;5072124;28;20882;-51
2021/07/13 01:50:23;;;;;;;9.47;6.90;;;;;;;;;;5072603;28;20410;-51
2021/07/13 01:52:50;;;;;;;7.23;6.37;;;;;;;;;;5071979;28;20759;-50
2021/07/13 01:55:16;;;;;;;6.90;6.30;;;;;;;;;;5071898;28;20456;-51
2021/07/13 01:57:42;;;;;;;10.83;7.10;;;;;;;;;;5071889;28;20421;-51
2021/07/13 02:00:10;;;;;;;7.47;6.63;;;;;;;;;;5072052;28;20407;-51
2021/07/13 02:02:38;;;;;;;7.23;6.73;;;;;;;;;;5071870;28;20431;-51
2021/07/13 02:05:05;;;;;;;7.07;6.53;;;;;;;;;;5072218;28;20403;-51
2021/07/13 02:07:33;;;;;;;7.50;6.80;;;;;;;;;;5071959;28;20861;-51
2021/07/13 02:10:00;;;;;;;7.53;6.80;;;;;;;;;;5071794;28;20949;-51
2021/07/13 02:12:26;;;;;;;7.17;6.57;;;;;;;;;;5071655;28;20402;-52
2021/07/13 02:14:52;;;;;;;9.77;7.10;;;;;;;;;;5071596;28;20506;-51
2021/07/13 02:17:17;;;;;;;8.73;6.27;;;;;;;;;;5071524;28;20446;-51
2021/07/13 02:19:43;;;;;;;7.27;6.80;;;;;;;;;;5071832;28;20841;-51
2021/07/13 02:22:10;;;;;;;7.30;6.60;;;;;;;;;;5071478;28;20874;-51
2021/07/13 02:24:36;;;;;;;8.20;7.40;;;;;;;;;;5071228;28;20905;-51
2021/07/13 02:27:10;;;;;;;7.20;6.70;;;;;;;;;;5071041;28;20429;-51
2021/07/13 02:29:42;;;;;;;7.10;6.40;;;;;;;;;;5071026;28;20489;-50
2021/07/13 02:32:12;;;;;;;7.60;6.50;;;;;;;;;;5071220;28;20400;-51
2021/07/13 02:34:40;;;;;;;7.33;6.83;;;;;;;;;;5070936;28;20425;-50
2021/07/13 02:37:06;;;;;;;7.60;7.00;;;;;;;;;;5071190;28;20446;-51
2021/07/13 02:39:33;;;;;;;7.53;6.90;;;;;;;;;;5071197;28;20896;-51
2021/07/13 02:41:59;;;;;;;6.60;6.00;;;;;;;;;;5071392;28;20402;-51
2021/07/13 02:44:27;;;;;;;7.37;6.77;;;;;;;;;;5071114;28;20882;-51
2021/07/13 02:46:53;;;;;;;10.97;6.60;;;;;;;;;;5070828;28;20446;-51
2021/07/13 02:49:24;;;;;;;9.27;8.57;;;;;;;;;;5071001;28;20406;-51
2021/07/13 02:51:51;;;;;;;7.97;7.10;;;;;;;;;;5070897;28;20800;-51
2021/07/13 02:54:19;;;;;;;7.67;6.87;;;;;;;;;;5070636;28;20401;-51
2021/07/13 02:56:46;;;;;;;7.67;7.17;;;;;;;;;;5070706;28;20434;-51
2021/07/13 02:59:12;;;;;;;7.20;6.70;;;;;;;;;;5070562;28;20480;-51
2021/07/13 03:01:38;;;;;;;9.40;7.60;;;;;;;;;;5070798;28;20393;-51
2021/07/13 03:04:05;;;;;;;8.67;7.83;;;;;;;;;;5070432;28;20769;-51
2021/07/13 03:06:31;;;;;;;14.30;7.90;;;;;;;;;;5070751;28;20419;-51
2021/07/13 03:08:57;;;;;;;11.37;7.90;;;;;;;;;;5070510;28;20480;-51
2021/07/13 03:11:23;;;;;;;7.40;6.70;;;;;;;;;;5070642;28;20389;-51
2021/07/13 03:13:50;;;;;;;11.60;7.93;;;;;;;;;;5070547;28;20402;-51
2021/07/13 03:16:16;;;;;;;9.43;8.63;;;;;;;;;;5070422;28;20465;-51
2021/07/13 03:18:42;;;;;;;8.23;7.63;;;;;;;;;;5070520;28;20426;-51
2021/07/13 03:21:09;;;;;;;9.57;8.63;;;;;;;;;;5070690;28;20397;-51
2021/07/13 03:23:37;;;;;;;10.20;9.20;;;;;;;;;;5070384;28;20394;-51
2021/07/13 03:26:03;;;;;;;11.67;10.47;;;;;;;;;;5070343;28;20409;-51
2021/07/13 03:28:30;;;;;;;9.67;8.80;;;;;;;;;;5070261;28;20448;-51
2021/07/13 03:30:56;;;;;;;11.10;10.00;;;;;;;;;;5070465;28;20403;-51
2021/07/13 03:33:23;;;;;;;11.17;9.70;;;;;;;;;;5070358;28;20404;-51
2021/07/13 03:35:49;;;;;;;11.87;9.50;;;;;;;;;;5070199;28;20452;-51
2021/07/13 03:38:16;;;;;;;9.73;8.97;;;;;;;;;;5070236;28;20783;-51
2021/07/13 03:40:45;;;;;;;9.93;8.93;;;;;;;;;;5076646;28;20397;-51
2021/07/13 03:43:11;;;;;;;10.87;9.77;;;;;;;;;;5076882;28;20908;-51
2021/07/13 03:45:37;;;;;;;11.67;10.57;;;;;;;;;;5076966;28;20412;-51
2021/07/13 03:48:03;;;;;;;11.27;10.17;;;;;;;;;;5076908;28;20417;-51
2021/07/13 03:50:32;;;;;;;14.33;13.03;;;;;;;;;;5077079;28;20772;-51
2021/07/13 03:52:58;;;;;;;12.27;11.03;;;;;;;;;;5077051;28;20436;-51
2021/07/13 03:55:24;;;;;;;11.93;10.77;;;;;;;;;;5076451;28;20495;-52
2021/07/13 03:57:52;;;;;;;13.67;12.23;;;;;;;;;;5076875;28;20430;-51
2021/07/13 04:00:19;;;;;;;10.73;9.83;;;;;;;;;;5076991;28;20396;-52
2021/07/13 04:02:45;;;;;;;11.73;10.50;;;;;;;;;;5076990;28;20386;-51
2021/07/13 04:05:12;;;;;;;11.87;10.77;;;;;;;;;;5076626;28;20405;-51
2021/07/13 04:07:38;;;;;;;11.90;10.80;;;;;;;;;;5076871;28;20431;-51
2021/07/13 04:10:05;;;;;;;11.30;10.17;;;;;;;;;;5076749;28;20416;-51
2021/07/13 04:12:31;;;;;;;24.57;11.90;;;;;;;;;;5077023;28;20409;-52
2021/07/13 04:14:57;;;;;;;12.37;11.10;;;;;;;;;;5076385;28;20986;-52
2021/07/13 04:17:23;;;;;;;13.00;11.87;;;;;;;;;;5076984;28;20984;-52
2021/07/13 04:19:48;;;;;;;11.77;10.53;;;;;;;;;;5076664;28;20404;-51
2021/07/13 04:22:14;;;;;;;11.60;10.50;;;;;;;;;;5076786;28;20723;-51
2021/07/13 04:24:40;;;;;;;13.90;10.60;;;;;;;;;;5076236;28;20496;-52
2021/07/13 04:27:06;;;;;;;13.10;11.87;;;;;;;;;;5076539;28;20432;-51
2021/07/13 04:29:32;;;;;;;14.17;12.57;;;;;;;;;;5076520;28;20413;-51
2021/07/13 04:31:58;;;;;;;12.47;11.17;;;;;;;;;;5076727;28;20876;-52
2021/07/13 04:34:24;;;;;;;15.20;11.83;;;;;;;;;;5076092;28;20893;-51
2021/07/13 04:36:50;;;;;;;14.80;11.03;;;;;;;;;;5076477;28;20428;-52
2021/07/13 04:39:16;;;;;;;14.67;13.17;;;;;;;;;;5076382;28;20847;-51
2021/07/13 04:41:42;;;;;;;13.10;11.60;;;;;;;;;;5076674;28;20401;-51
2021/07/13 04:44:08;;;;;;;13.40;12.00;;;;;;;;;;5076244;28;20397;-51
2021/07/13 04:46:34;;;;;;;19.40;12.10;;;;;;;;;;5076230;28;20428;-52
2021/07/13 04:49:00;;;;;;;13.60;12.30;;;;;;;;;;5076410;28;20411;-52
2021/07/13 04:51:26;;;;;;;19.63;13.00;;;;;;;;;;5073780;28;20402;-51
2021/07/13 04:53:52;;;;;;;14.23;12.77;;;;;;;;;;5072920;28;20537;-51
2021/07/13 04:56:18;;;;;;;15.93;14.20;;;;;;;;;;5072861;28;20442;-52
2021/07/13 04:58:44;;;;;;;15.20;13.60;;;;;;;;;;5073160;28;20959;-51
2021/07/13 05:01:11;;;;;;;15.43;13.77;;;;;;;;;;5073082;28;20407;-52
2021/07/13 05:03:37;;;;;;;17.60;14.57;;;;;;;;;;5072976;28;20405;-52
2021/07/13 05:06:03;;;;;;;16.13;14.63;;;;;;;;;;5072706;28;20427;-52
2021/07/13 05:08:29;;;;;;;16.30;14.57;;;;;;;;;;5072884;28;20426;-52
2021/07/13 05:10:55;;;;;;;19.43;15.33;;;;;;;;;;5072989;28;20380;-51
2021/07/13 05:13:21;;;;;;;17.47;14.60;;;;;;;;;;5073311;28;20405;-51
2021/07/13 05:15:47;;;;;;;19.37;14.70;;;;;;;;;;5072423;28;20456;-51
2021/07/13 05:18:14;;;;;;;16.37;14.67;;;;;;;;;;5072713;28;20441;-51
2021/07/13 05:20:49;;;;;;;18.30;14.33;;;;;;;;;;5072485;28;20974;-52
2021/07/13 05:23:16;;;;;;;17.30;14.87;;;;;;;;;;5072769;28;20850;-51
2021/07/13 05:25:42;;;;;;;17.37;14.87;;;;;;;;;;5072303;28;20765;-52
2021/07/13 05:28:12;;;;;;;19.77;16.23;;;;;;;;;;5072559;28;20427;-51
2021/07/13 05:30:39;;;;;;;16.87;15.10;;;;;;;;;;5072449;28;20397;-51
2021/07/13 05:33:05;;;;;;;20.70;15.13;;;;;;;;;;5072533;28;20459;-52
2021/07/13 05:35:31;;;;;;;20.50;16.13;;;;;;;;;;5072075;28;20456;-51
2021/07/13 05:37:57;;;;;;;16.07;14.57;;;;;;;;;;5072566;28;20430;-52
2021/07/13 05:40:23;;;;;;;17.80;16.00;;;;;;;;;;5072378;28;20459;-52
2021/07/13 05:42:48;;;;;;;20.57;16.27;;;;;;;;;;5072287;28;20768;-52
2021/07/13 05:45:15;;;;;;;19.47;16.70;;;;;;;;;;5072074;28;20467;-52
2021/07/13 05:47:40;;;;;;;17.40;15.60;;;;;;;;;;5072069;28;20800;-51
2021/07/13 05:50:07;;;;;;;18.13;16.20;;;;;;;;;;5072979;28;20402;-51
2021/07/13 05:52:33;;;;;;;18.53;15.87;;;;;;;;;;5072145;28;20408;-51
2021/07/13 05:54:59;;;;;;;19.53;15.77;;;;;;;;;;5071858;28;20451;-51
2021/07/13 05:57:26;;;;;;;18.70;16.80;;;;;;;;;;5071789;28;20832;-51
2021/07/13 05:59:52;;;;;;;17.80;16.10;;;;;;;;;;5072110;28;20398;-51
2021/07/13 06:02:18;;;;;;;20.70;18.50;;;;;;;;;;5071651;28;20462;-51
2021/07/13 06:04:44;;;;;;;20.10;17.10;;;;;;;;;;5071853;28;20483;-50
2021/07/13 06:07:10;;;;;;;20.50;17.80;;;;;;;;;;5071896;28;20440;-50
2021/07/13 06:09:36;;;;;;;23.27;18.50;;;;;;;;;;5072020;28;20412;-51
2021/07/13 06:12:02;;;;;;;19.60;17.60;;;;;;;;;;5071708;28;20408;-51
2021/07/13 06:14:28;;;;;;;21.40;18.17;;;;;;;;;;5071470;28;20926;-51
2021/07/13 06:16:54;;;;;;;20.50;18.40;;;;;;;;;;5071428;28;20445;-51
2021/07/13 06:19:20;;;;;;;17.53;15.87;;;;;;;;;;5071754;28;20413;-51
2021/07/13 06:21:46;;;;;;;22.13;18.90;;;;;;;;;;5071531;28;20459;-51
2021/07/13 06:24:12;;;;;;;21.17;18.00;;;;;;;;;;5071377;28;20769;-51
2021/07/13 06:26:38;;;;;;;22.20;18.60;;;;;;;;;;5071583;28;20480;-51
2021/07/13 06:29:04;;;;;;;22.70;20.37;;;;;;;;;;5071377;28;20497;-51
2021/07/13 06:31:30;;;;;;;24.13;20.40;;;;;;;;;;5071439;28;20407;-51
2021/07/13 06:33:56;;;;;;;29.40;20.83;;;;;;;;;;5071044;28;20530;-51
2021/07/13 06:36:22;;;;;;;27.50;21.30;;;;;;;;;;5071155;28;20548;-51
2021/07/13 06:38:48;;;;;;;30.70;21.37;;;;;;;;;;5071233;28;20410;-51
2021/07/13 06:41:14;;;;;;;34.10;22.37;;;;;;;;;;5071445;28;20404;-51
2021/07/13 06:43:40;;;;;;;29.00;23.10;;;;;;;;;;5071000;28;20495;-51
2021/07/13 06:46:06;;;;;;;27.90;23.97;;;;;;;;;;5071003;28;20471;-51
2021/07/13 06:48:32;;;;;;;33.07;25.33;;;;;;;;;;5053407;28;20430;-51
2021/07/13 06:50:58;;;;;;;33.50;24.63;;;;;;;;;;5071280;28;20485;-51
2021/07/13 06:53:25;;;;;;;28.20;23.90;;;;;;;;;;5071107;28;20408;-51
2021/07/13 06:55:51;;;;;;;31.13;24.73;;;;;;;;;;5070830;28;20466;-51
2021/07/13 06:58:17;;;;;;;30.20;22.27;;;;;;;;;;5070929;28;20417;-51
2021/07/13 07:00:43;;;;;;;34.07;25.67;;;;;;;;;;5070816;28;20387;-51
2021/07/13 07:03:09;;;;;;;29.50;22.63;;;;;;;;;;5070961;28;20397;-51
2021/07/13 07:05:35;;;;;;;27.00;23.10;;;;;;;;;;5070194;28;20941;-51
2021/07/13 07:08:02;;;;;;;31.43;23.40;;;;;;;;;;5070327;28;20426;-51
2021/07/13 07:10:28;;;;;;;26.70;23.47;;;;;;;;;;5069857;28;20402;-50
2021/07/13 07:12:54;;;;;;;27.90;22.60;;;;;;;;;;5070138;28;20957;-51
2021/07/13 07:15:20;;;;;;;28.27;23.37;;;;;;;;;;5068906;28;20452;-51
2021/07/13 07:17:47;;;;;;;34.33;24.83;;;;;;;;;;5069962;28;20452;-51
2021/07/13 07:20:14;;;;;;;30.57;24.87;;;;;;;;;;5069860;28;20377;-51
2021/07/13 07:22:40;;;;;;;29.20;23.90;;;;;;;;;;5069964;28;20403;-51
2021/07/13 07:25:06;;;;;;;29.00;22.47;;;;;;;;;;5069662;28;20404;-51
2021/07/13 07:27:32;;;;;;;31.27;24.03;;;;;;;;;;5069955;28;20428;-51
2021/07/13 07:29:58;;;;;;;25.20;21.50;;;;;;;;;;5069957;28;20878;-51
2021/07/13 07:32:24;;;;;;;27.93;23.63;;;;;;;;;;5069852;28;20402;-51
2021/07/13 07:34:50;;;;;;;33.20;25.63;;;;;;;;;;5069582;28;20455;-51
2021/07/13 07:37:16;;;;;;;27.10;22.30;;;;;;;;;;5069765;28;20420;-51
2021/07/13 07:39:42;;;;;;;28.17;22.17;;;;;;;;;;5070259;28;20410;-51
2021/07/13 07:42:08;;;;;;;26.03;22.17;;;;;;;;;;5070245;28;20400;-51
2021/07/13 07:44:34;;;;;;;26.83;22.67;;;;;;;;;;5069898;28;20400;-51
2021/07/13 07:47:00;;;;;;;29.83;25.00;;;;;;;;;;5070092;28;20463;-51
2021/07/13 07:49:26;;;;;;;31.33;26.77;;;;;;;;;;5070071;28;20407;-51
2021/07/13 07:51:52;;;;;;;34.30;28.33;;;;;;;;;;5069800;28;20408;-51
2021/07/13 07:54:18;;;;;;;40.23;31.00;;;;;;;;;;5069489;28;20894;-51
2021/07/13 07:56:44;;;;;;;31.60;28.30;;;;;;;;;;5069015;28;20992;-51
2021/07/13 07:59:10;;;;;;;32.00;28.37;;;;;;;;;;5069435;28;20415;-51
2021/07/13 08:01:36;;;;;;;33.80;29.13;;;;;;;;;;5069715;28;20795;-51
2021/07/13 08:04:02;;;;;;;34.03;27.80;;;;;;;;;;5069647;28;20479;-51
2021/07/13 08:06:28;;;;;;;33.73;28.20;;;;;;;;;;5069482;28;20396;-52
2021/07/13 08:08:54;;;;;;;31.67;28.27;;;;;;;;;;5069770;28;20407;-51
2021/07/13 08:11:20;;;;;;;35.90;28.77;;;;;;;;;;5069615;28;20401;-51
2021/07/13 08:13:46;;;;;;;30.97;26.87;;;;;;;;;;5069518;28;20796;-51
2021/07/13 08:16:12;;;;;;;37.10;28.40;;;;;;;;;;5068625;28;20501;-51
2021/07/13 08:18:38;;;;;;;35.60;28.77;;;;;;;;;;5068554;28;20409;-51
2021/07/13 08:21:04;;;;;;;31.83;28.17;;;;;;;;;;5068837;28;20479;-51
2021/07/13 08:23:30;;;;;;;31.83;27.90;;;;;;;;;;5069317;28;20400;-51
2021/07/13 08:25:56;;;;;;;36.00;28.97;;;;;;;;;;5070254;28;20412;-51
2021/07/13 08:28:22;;;;;;;33.90;28.97;;;;;;;;;;5073724;28;20511;-51
2021/07/13 08:30:48;;;;;;;31.90;26.60;;;;;;;;;;5074103;28;20420;-51
2021/07/13 08:33:14;;;;;;;34.67;29.63;;;;;;;;;;5073837;28;20408;-51
2021/07/13 08:35:40;;;;;;;35.13;30.57;;;;;;;;;;5073741;28;20487;-51
2021/07/13 08:38:06;;;;;;;36.60;32.30;;;;;;;;;;5073693;28;20779;-51
2021/07/13 08:40:32;;;;;;;35.03;28.67;;;;;;;;;;5073939;28;20400;-52
2021/07/13 08:42:58;;;;;;;34.47;29.80;;;;;;;;;;5073653;28;20396;-51
2021/07/13 08:45:24;;;;;;;31.60;27.90;;;;;;;;;;5073539;28;20423;-51
2021/07/13 08:47:51;;;;;;;35.90;28.57;;;;;;;;;;5073723;28;20424;-51
2021/07/13 08:50:19;;;;;;;37.97;29.90;;;;;;;;;;5073740;28;20889;-51
2021/07/13 08:52:45;;;;;;;36.20;30.23;;;;;;;;;;5073545;28;20800;-51
2021/07/13 08:55:12;;;;;;;35.23;31.17;;;;;;;;;;5073293;28;20444;-51
2021/07/13 08:57:38;;;;;;;33.20;29.40;;;;;;;;;;5073355;28;20424;-51
2021/07/13 09:00:06;;;;;;;32.10;28.70;;;;;;;;;;5073874;28;20491;-51
2021/07/13 09:02:32;;;;;;;35.90;31.87;;;;;;;;;;5073292;28;20766;-51
2021/07/13 09:04:58;;;;;;;32.83;28.23;;;;;;;;;;5073844;28;20889;-51
2021/07/13 09:07:24;;;;;;;35.87;31.07;;;;;;;;;;5073401;28;20465;-51
2021/07/13 09:09:53;;;;;;;37.27;31.00;;;;;;;;;;5073449;28;20408;-51
2021/07/13 09:12:23;;;;;;;35.97;32.07;;;;;;;;;;5073698;28;20408;-51
2021/07/13 09:14:49;;;;;;;35.27;31.47;;;;;;;;;;5073245;28;20400;-51
2021/07/13 09:17:32;;;;;;;34.27;29.40;;;;;;;;;;5073247;28;20445;-51
2021/07/13 09:19:59;;;;;;;31.97;27.33;;;;;;;;;;5073136;28;20394;-51
2021/07/13 09:22:25;;;;;;;26.20;23.43;;;;;;;;;;5073209;28;20448;-51
2021/07/13 09:24:51;;;;;;;30.10;24.67;;;;;;;;;;5072961;28;20402;-51
2021/07/13 09:27:20;;;;;;;25.63;22.93;;;;;;;;;;5072978;28;20431;-51
2021/07/13 09:29:48;;;;;;;27.70;24.87;;;;;;;;;;5072908;28;20435;-51
2021/07/13 09:32:17;;;;;;;26.37;23.20;;;;;;;;;;5072851;28;20896;-52
2021/07/13 09:34:49;;;;;;;26.03;23.33;;;;;;;;;;5073060;28;20440;-52
2021/07/13 09:37:20;;;;;;;23.73;21.37;;;;;;;;;;5072533;28;20417;-51
2021/07/13 09:39:54;;;;;;;23.30;21.00;;;;;;;;;;5073355;28;20411;-51
2021/07/13 09:42:21;;;;;;;26.90;21.83;;;;;;;;;;5073078;28;20403;-51
2021/07/13 09:44:47;;;;;;;25.03;22.53;;;;;;;;;;5072465;28;20396;-51
2021/07/13 09:47:27;;;;;;;23.53;21.20;;;;;;;;;;5072846;28;20443;-51
2021/07/13 09:49:53;;;;;;;24.27;21.53;;;;;;;;;;5072462;28;21008;-51
2021/07/13 09:52:24;;;;;;;21.17;19.07;;;;;;;;;;5072619;28;20400;-51
2021/07/13 09:54:50;;;;;;;21.87;19.77;;;;;;;;;;5072139;28;20397;-51
2021/07/13 09:57:23;;;;;;;19.67;17.87;;;;;;;;;;5072756;28;20979;-51
2021/07/13 09:59:56;;;;;;;21.60;19.47;;;;;;;;;;5070517;28;20418;-51
2021/07/13 10:02:26;;;;;;;20.23;18.10;;;;;;;;;;5064022;28;20408;-51
2021/07/13 10:04:54;;;;;;;22.23;20.10;;;;;;;;;;5072228;28;20404;-51
2021/07/13 10:07:21;;;;;;;24.93;21.27;;;;;;;;;;5070720;28;20510;-51
2021/07/13 10:09:48;;;;;;;21.00;18.90;;;;;;;;;;5072656;28;20603;-51
2021/07/13 10:12:16;;;;;;;22.03;19.83;;;;;;;;;;5072480;28;20889;-51
2021/07/13 10:14:46;;;;;;;19.57;17.53;;;;;;;;;;5072036;28;20977;-51
2021/07/13 10:17:13;;;;;;;20.70;18.87;;;;;;;;;;5059873;28;21048;-51
2021/07/13 10:19:42;;;;;;;18.50;16.53;;;;;;;;;;5052149;28;20898;-51
2021/07/13 10:22:08;;;;;;;20.33;18.43;;;;;;;;;;5052303;28;20401;-51
2021/07/13 10:24:34;;;;;;;22.53;20.37;;;;;;;;;;5051996;28;20822;-51
2021/07/13 10:27:02;;;;;;;21.73;19.73;;;;;;;;;;5052076;28;20789;-51
2021/07/13 10:29:34;;;;;;;20.00;18.10;;;;;;;;;;5052004;28;20401;-51
2021/07/13 10:32:01;;;;;;;20.47;18.57;;;;;;;;;;5051374;28;20401;-51
2021/07/13 10:34:46;;;;;;;20.97;18.87;;;;;;;;;;5051429;28;20429;-51
2021/07/13 10:37:30;;;;;;;20.87;18.80;;;;;;;;;;5056498;28;20440;-51
2021/07/13 10:39:58;;;;;;;19.17;17.17;;;;;;;;;;5051750;28;20404;-51
2021/07/13 10:42:53;;;;;;;19.27;17.57;;;;;;;;;;5051688;28;20405;-52
2021/07/13 10:45:27;;;;;;;22.73;17.90;;;;;;;;;;5034033;28;20930;-51
2021/07/13 10:47:57;;;;;;;19.77;17.90;;;;;;;;;;5051369;28;20414;-51
2021/07/13 10:50:24;;;;;;;20.40;18.50;;;;;;;;;;5050997;28;20398;-52
2021/07/13 10:52:53;;;;;;;19.40;17.47;;;;;;;;;;5033633;28;20406;-51
2021/07/13 10:55:31;;;;;;;21.70;17.37;;;;;;;;;;5051454;28;20480;-51
2021/07/13 10:58:10;;;;;;;19.77;17.87;;;;;;;;;;5051700;28;20443;-51
2021/07/13 11:00:59;;;;;;;18.20;16.47;;;;;;;;;;5051156;28;20397;-51
2021/07/13 11:03:28;;;;;;;22.27;20.10;;;;;;;;;;5050657;28;20401;-51
2021/07/13 11:05:54;;;;;;;26.03;22.53;;;;;;;;;;5050274;28;20416;-51
2021/07/13 11:11:25;;;;;;;21.53;19.60;;;;;;;;;;5050415;28;20389;-52
2021/07/13 11:13:51;;;;;;;22.27;20.17;;;;;;;;;;5036544;28;20422;-51
2021/07/13 11:16:22;;;;;;;19.63;17.73;;;;;;;;;;5049600;28;20551;-51
2021/07/13 11:18:48;;;;;;;18.93;17.03;;;;;;;;;;5062483;28;20431;-51
2021/07/13 11:21:14;;;;;;;19.30;17.50;;;;;;;;;;5070960;28;21072;-52
2021/07/13 11:23:41;;;;;;;17.70;15.40;;;;;;;;;;5067014;28;20412;-51
2021/07/13 11:26:08;;;;;;;16.80;15.30;;;;;;;;;;5058329;28;20420;-51
2021/07/13 11:28:35;;;;;;;13.90;12.60;;;;;;;;;;5051542;28;20898;-51
2021/07/13 11:31:02;;;;;;;11.47;10.47;;;;;;;;;;5050829;28;20554;-51
2021/07/13 11:33:28;;;;;;;9.93;9.00;;;;;;;;;;5050948;28;20413;-51
2021/07/13 11:35:55;;;;;;;10.13;8.60;;;;;;;;;;5050342;28;20535;-51
2021/07/13 11:38:28;;;;;;;9.40;8.37;;;;;;;;;;5050670;28;20850;-51
2021/07/13 11:41:10;;;;;;;7.80;7.30;;;;;;;;;;5050728;28;20401;-51
2021/07/13 11:43:36;;;;;;;8.67;7.73;;;;;;;;;;5051043;28;20421;-51
2021/07/13 11:46:18;;;;;;;8.83;8.13;;;;;;;;;;5050678;28;20409;-51
2021/07/13 11:48:57;;;;;;;8.00;7.30;;;;;;;;;;5050386;28;20843;-51
2021/07/13 11:51:27;;;;;;;8.37;7.60;;;;;;;;;;5050952;28;20890;-51
2021/07/13 11:54:00;;;;;;;11.93;7.10;;;;;;;;;;5050101;28;20891;-51
2021/07/13 11:56:28;;;;;;;8.27;7.43;;;;;;;;;;5049847;28;20873;-51
2021/07/13 11:58:54;;;;;;;8.20;7.50;;;;;;;;;;5050518;28;20886;-52
2021/07/13 12:01:21;;;;;;;10.00;7.93;;;;;;;;;;5052924;28;20396;-52
2021/07/13 12:03:52;;;;;;;8.50;7.83;;;;;;;;;;5054005;28;20389;-51
2021/07/13 12:06:20;;;;;;;9.47;8.50;;;;;;;;;;5053640;28;20408;-53
2021/07/13 12:08:56;;;;;;;7.77;7.07;;;;;;;;;;5036778;28;20397;-51
2021/07/13 12:11:29;;;;;;;10.00;8.30;;;;;;;;;;5054597;28;20499;-52
2021/07/13 12:13:56;;;;;;;6.87;6.37;;;;;;;;;;5053928;28;20911;-52
2021/07/13 12:16:24;;;;;;;8.07;7.43;;;;;;;;;;5053835;28;20475;-52
2021/07/13 12:18:51;;;;;;;7.73;7.03;;;;;;;;;;5053983;28;20480;-52
2021/07/13 12:21:17;;;;;;;8.47;7.77;;;;;;;;;;5054082;28;20405;-52
2021/07/13 12:23:46;;;;;;;8.17;7.30;;;;;;;;;;5053552;28;20408;-52
2021/07/13 12:26:30;;;;;;;7.47;6.87;;;;;;;;;;5054045;28;20814;-52
2021/07/13 12:29:08;;;;;;;8.73;7.67;;;;;;;;;;5053990;28;20858;-52
2021/07/13 12:31:38;;;;;;;8.50;6.80;;;;;;;;;;5053868;28;20389;-52
2021/07/13 12:34:06;;;;;;;8.13;7.33;;;;;;;;;;5053331;28;20401;-52
2021/07/13 12:36:34;;;;;;;8.17;7.47;;;;;;;;;;5053584;28;20816;-52
2021/07/13 12:39:12;;;;;;;8.00;7.20;;;;;;;;;;5053591;28;20401;-52
2021/07/13 12:41:41;;;;;;;10.50;7.73;;;;;;;;;;5053828;28;20397;-53
2021/07/13 12:44:30;;;;;;;8.60;7.70;;;;;;;;;;5053342;28;20408;-52
2021/07/13 12:47:14;;;;;;;8.93;8.03;;;;;;;;;;5053449;28;20457;-52
2021/07/13 12:49:40;;;;;;;9.07;8.20;;;;;;;;;;5053358;28;20480;-52
2021/07/13 12:52:13;;;;;;;9.10;8.33;;;;;;;;;;5053496;28;20871;-52
2021/07/13 12:54:55;;;;;;;10.07;8.93;;;;;;;;;;5053045;28;20436;-52
2021/07/13 12:57:28;;;;;;;8.17;7.47;;;;;;;;;;5053507;28;20443;-52
2021/07/13 13:00:06;;;;;;;9.87;9.00;;;;;;;;;;5053253;28;20748;-52
2021/07/13 13:02:32;;;;;;;8.27;7.57;;;;;;;;;;5053289;28;20409;-52
2021/07/13 13:04:58;;;;;;;10.00;8.83;;;;;;;;;;5052893;28;20402;-51
2021/07/13 13:07:24;;;;;;;9.57;8.67;;;;;;;;;;5053048;28;20492;-52
2021/07/13 13:09:50;;;;;;;9.57;8.77;;;;;;;;;;5053086;28;20492;-52
2021/07/13 13:12:16;;;;;;;10.50;9.50;;;;;;;;;;5052366;28;20483;-51
2021/07/13 13:14:43;;;;;;;12.87;10.60;;;;;;;;;;5052703;28;20491;-52
2021/07/13 13:17:12;;;;;;;11.50;10.40;;;;;;;;;;5052879;28;21001;-52
2021/07/13 13:19:38;;;;;;;35.40;18.10;;;;;;;;;;5052983;28;20417;-52
2021/07/13 13:22:04;;;;;;;161.10;67.80;;;;;;;;;;5052939;28;20481;-51
2021/07/13 13:24:30;;;;;;;85.83;41.50;;;;;;;;;;5052951;28;20906;-52
2021/07/13 13:26:56;;;;;;;11.70;10.57;;;;;;;;;;5052925;28;20805;-52
2021/07/13 13:29:22;;;;;;;11.90;10.70;;;;;;;;;;5053024;28;20952;-52
2021/07/13 13:31:48;;;;;;;11.00;9.13;;;;;;;;;;5052724;28;20482;-52
2021/07/13 13:34:14;;;;;;;11.97;10.77;;;;;;;;;;5052558;28;20780;-52
2021/07/13 13:36:41;;;;;;;13.20;11.80;;;;;;;;;;5052381;28;20528;-52
2021/07/13 13:39:20;;;;;;;12.00;11.00;;;;;;;;;;5052901;28;20528;-51
2021/07/13 13:41:46;;;;;;;13.80;12.57;;;;;;;;;;5052455;28;20391;-52
2021/07/13 13:44:13;;;;;;;82.20;35.73;;;;;;;;;;5052264;28;20401;-52
2021/07/13 13:46:39;;;;;;;15.97;14.33;;;;;;;;;;5052065;28;20425;-52
2021/07/13 13:49:05;;;;;;;15.57;12.00;;;;;;;;;;5052540;28;20403;-52
2021/07/13 13:51:32;;;;;;;16.20;14.13;;;;;;;;;;5052231;28;20490;-52
2021/07/13 13:53:58;;;;;;;17.50;14.90;;;;;;;;;;5051969;28;20411;-52
2021/07/13 13:56:27;;;;;;;14.77;12.90;;;;;;;;;;5052096;28;20843;-52
2021/07/13 13:58:53;;;;;;;17.17;15.27;;;;;;;;;;5051999;28;20402;-52
2021/07/13 14:01:20;;;;;;;18.00;13.50;;;;;;;;;;5052009;28;20489;-52
2021/07/13 14:03:46;;;;;;;17.67;15.97;;;;;;;;;;5051694;28;20403;-51
2021/07/13 14:06:12;;;;;;;19.57;17.70;;;;;;;;;;5052015;28;20899;-52
2021/07/13 14:08:39;;;;;;;20.67;18.77;;;;;;;;;;5052086;28;20415;-51
2021/07/13 14:11:06;;;;;;;22.03;18.70;;;;;;;;;;5051937;28;20456;-52
2021/07/13 14:13:32;;;;;;;20.33;18.37;;;;;;;;;;5051598;28;20419;-52
2021/07/13 14:16:00;;;;;;;19.10;16.90;;;;;;;;;;5051486;28;20447;-51
2021/07/13 14:18:26;;;;;;;20.63;18.57;;;;;;;;;;5051825;28;20427;-52
2021/07/13 14:20:53;;;;;;;20.47;18.40;;;;;;;;;;5051927;28;20856;-52
2021/07/13 14:23:19;;;;;;;20.77;18.67;;;;;;;;;;5051473;28;20780;-52
2021/07/13 14:25:45;;;;;;;20.13;17.20;;;;;;;;;;5050487;28;20409;-51
2021/07/13 14:28:11;;;;;;;20.53;18.47;;;;;;;;;;5051011;28;20485;-52
2021/07/13 14:30:37;;;;;;;19.30;17.63;;;;;;;;;;5051327;28;20409;-52
2021/07/13 14:33:03;;;;;;;19.00;17.13;;;;;;;;;;5051316;28;20420;-52